createdAt,value
2023-04-12T00:00:26.175Z,25.63
2023-04-12T00:02:56.181Z,18.20
2023-04-12T00:05:27.557Z,24.90
2023-04-12T00:08:01.138Z,24.48
2023-04-12T00:10:42.338Z,24.10
2023-04-12T00:13:09.068Z,24.52
2023-04-12T00:15:35.920Z,24.42
2023-04-12T00:18:03.201Z,25.05
2023-04-12T00:20:33.160Z,23.40
2023-04-12T00:23:00.185Z,24.63
2023-04-12T00:25:39.442Z,22.17
2023-04-12T00:28:06.577Z,21.90
2023-04-12T00:30:33.651Z,23.73
2023-04-12T00:33:07.393Z,21.98
2023-04-12T00:35:34.239Z,23.95
2023-04-12T00:38:11.474Z,24.77
2023-04-12T00:40:44.476Z,23.38
2023-04-12T00:43:17.872Z,21.70
2023-04-12T00:45:46.386Z,22.63
2023-04-12T00:48:19.783Z,22.35
2023-04-12T00:50:48.248Z,21.67
2023-04-12T00:53:15.944Z,22.52
2023-04-12T00:55:44.747Z,22.27
2023-04-12T00:58:17.577Z,22.20
2023-04-12T01:00:50.956Z,23.92
2023-04-12T01:03:24.854Z,22.83
2023-04-12T01:06:16.566Z,24.65
2023-04-12T01:09:00.532Z,22.55
2023-04-12T01:11:37.386Z,23.35
2023-04-12T01:14:28.634Z,22.35
2023-04-12T01:17:03.756Z,24.20
2023-04-12T01:19:36.129Z,24.08
2023-04-12T01:22:32.928Z,23.90
2023-04-12T01:25:36.830Z,23.67
2023-04-12T01:28:05.271Z,17.52
2023-04-12T01:30:34.208Z,23.80
2023-04-12T01:33:06.754Z,22.95
2023-04-12T01:35:35.375Z,23.13
2023-04-12T01:38:04.393Z,22.75
2023-04-12T01:40:39.814Z,22.45
2023-04-12T01:43:10.386Z,24.15
2023-04-12T01:45:38.442Z,22.60
2023-04-12T01:48:12.882Z,24.00
2023-04-12T01:51:09.626Z,23.80
2023-04-12T01:53:46.846Z,22.45
2023-04-12T01:56:19.435Z,23.27
2023-04-12T01:58:55.199Z,23.65
2023-04-12T02:01:22.685Z,22.90
2023-04-12T02:03:52.358Z,23.83
2023-04-12T02:06:24.364Z,23.38
2023-04-12T02:09:02.867Z,23.90
2023-04-12T02:11:29.917Z,23.92
2023-04-12T02:13:57.485Z,23.90
2023-04-12T02:16:26.028Z,25.15
2023-04-12T02:18:52.826Z,24.15
2023-04-12T02:21:28.777Z,23.90
2023-04-12T02:23:55.765Z,25.45
2023-04-12T02:26:23.680Z,18.65
2023-04-12T02:29:11.058Z,23.65
2023-04-12T02:31:59.076Z,23.80
2023-04-12T02:34:58.762Z,23.15
2023-04-12T02:37:55.834Z,23.17
2023-04-12T02:40:45.963Z,23.25
2023-04-12T02:43:23.246Z,24.20
2023-04-12T02:45:50.193Z,24.02
2023-04-12T02:48:26.134Z,28.38
2023-04-12T02:50:52.872Z,25.70
2023-04-12T02:53:20.119Z,23.73
2023-04-12T02:55:46.881Z,24.45
2023-04-12T02:58:23.943Z,24.40
2023-04-12T03:01:54.013Z,24.17
2023-04-12T03:04:33.256Z,22.88
2023-04-12T03:07:16.692Z,24.20
2023-04-12T03:10:03.335Z,24.50
2023-04-12T03:13:12.240Z,24.50
2023-04-12T03:16:39.556Z,23.90
2023-04-12T03:19:51.839Z,23.48
2023-04-12T03:22:21.068Z,23.13
2023-04-12T03:24:49.297Z,24.13
2023-04-12T03:27:29.605Z,24.27
2023-04-12T03:29:56.689Z,25.33
2023-04-12T03:32:33.678Z,22.67
2023-04-12T03:35:00.535Z,22.75
2023-04-12T03:37:39.741Z,18.42
2023-04-12T03:40:13.397Z,26.73
2023-04-12T03:42:50.804Z,24.15
2023-04-12T03:45:57.448Z,23.42
2023-04-12T03:48:40.012Z,25.42
2023-04-12T03:51:25.700Z,24.80
2023-04-12T03:54:48.750Z,18.38
2023-04-12T03:57:16.504Z,22.50
2023-04-12T03:59:47.080Z,25.02
2023-04-12T04:02:25.757Z,24.17
2023-04-12T04:04:54.249Z,27.30
2023-04-12T04:07:28.353Z,25.52
2023-04-12T04:10:54.873Z,23.92
2023-04-12T04:14:20.205Z,25.27
2023-04-12T04:17:56.606Z,25.17
2023-04-12T04:21:22.634Z,23.30
2023-04-12T04:24:48.568Z,25.40
2023-04-12T04:28:17.099Z,24.02
2023-04-12T04:31:42.581Z,24.58
2023-04-12T04:38:37.135Z,23.38
2023-04-12T04:42:17.940Z,23.90
2023-04-12T04:45:43.708Z,24.23
2023-04-12T04:49:12.238Z,24.48
2023-04-12T04:52:38.733Z,24.15
2023-04-12T04:56:11.566Z,17.65
2023-04-12T04:59:39.989Z,25.85
2023-04-12T05:03:16.319Z,23.95
2023-04-12T05:06:41.685Z,24.05
2023-04-12T05:10:07.305Z,25.77
2023-04-12T05:13:23.936Z,25.10
2023-04-12T05:16:15.811Z,23.85
2023-04-12T05:19:46.986Z,25.15
2023-04-12T05:23:20.682Z,25.27
2023-04-12T05:26:49.507Z,24.50
2023-04-12T05:30:15.014Z,25.80
2023-04-12T05:37:05.713Z,25.15
2023-04-12T05:43:57.615Z,19.00
2023-04-12T05:47:28.621Z,30.80
2023-04-12T05:50:54.544Z,21.42
2023-04-12T05:54:21.778Z,25.63
2023-04-12T05:57:47.481Z,27.00
2023-04-12T06:01:22.233Z,32.67
2023-04-12T06:04:51.216Z,27.63
2023-04-12T06:08:17.323Z,28.50
2023-04-12T06:15:07.958Z,35.97
2023-04-12T06:18:33.900Z,28.13
2023-04-12T06:21:59.356Z,31.77
2023-04-12T06:25:24.795Z,32.25
2023-04-12T06:28:50.458Z,35.15
2023-04-12T06:32:16.052Z,34.13
2023-04-12T06:35:41.386Z,33.17
2023-04-12T06:39:06.985Z,31.90
2023-04-12T06:42:34.546Z,31.25
2023-04-12T06:46:03.018Z,31.10
2023-04-12T06:49:30.599Z,31.55
2023-04-12T06:52:55.910Z,29.00
2023-04-12T06:59:46.407Z,29.17
2023-04-12T07:02:18.840Z,26.33
2023-04-12T07:04:46.003Z,27.17
2023-04-12T07:07:12.959Z,28.50
2023-04-12T07:09:39.996Z,27.33
2023-04-12T07:12:07.078Z,31.40
2023-04-12T07:14:34.597Z,27.77
2023-04-12T07:17:01.685Z,26.92
2023-04-12T07:19:29.922Z,27.88
2023-04-12T07:21:56.836Z,28.33
2023-04-12T07:24:23.868Z,28.90
2023-04-12T07:26:54.136Z,27.50
2023-04-12T07:29:21.392Z,20.38
2023-04-12T07:31:57.259Z,26.70
2023-04-12T07:34:24.432Z,25.88
2023-04-12T07:36:51.421Z,23.88
2023-04-12T07:39:18.222Z,27.17
2023-04-12T07:41:51.562Z,34.47
2023-04-12T07:44:18.728Z,25.85
2023-04-12T07:46:46.346Z,27.50
2023-04-12T07:49:13.575Z,27.20
2023-04-12T07:51:43.470Z,25.50
2023-04-12T07:54:10.227Z,26.08
2023-04-12T07:56:37.592Z,28.42
2023-04-12T07:59:04.327Z,25.35
2023-04-12T08:01:31.218Z,26.67
2023-04-12T08:03:58.666Z,26.00
2023-04-12T08:06:29.405Z,25.83
2023-04-12T08:09:00.540Z,19.77
2023-04-12T08:11:27.256Z,25.42
2023-04-12T08:13:53.972Z,26.15
2023-04-12T08:16:23.658Z,25.15
2023-04-12T08:18:50.418Z,25.17
2023-04-12T08:21:17.256Z,24.75
2023-04-12T08:23:46.543Z,25.00
2023-04-12T08:26:13.298Z,24.45
2023-04-12T08:28:40.581Z,24.77
2023-04-12T08:31:08.481Z,22.88
2023-04-12T08:33:36.069Z,25.38
2023-04-12T08:38:41.983Z,19.08
2023-04-12T08:41:18.882Z,22.95
2023-04-12T08:43:48.954Z,24.40
2023-04-12T08:46:16.812Z,23.02
2023-04-12T08:48:48.628Z,23.13
2023-04-12T08:51:20.152Z,23.33
2023-04-12T08:53:47.111Z,21.90
2023-04-12T08:56:15.175Z,23.02
2023-04-12T08:58:47.124Z,23.15
2023-04-12T09:01:15.923Z,22.88
2023-04-12T09:03:44.305Z,22.48
2023-04-12T09:06:12.070Z,18.25
2023-04-12T09:08:51.386Z,18.08
2023-04-12T09:11:26.232Z,21.92
2023-04-12T09:13:54.964Z,21.80
2023-04-12T09:16:44.519Z,22.23
2023-04-12T09:19:11.397Z,21.65
2023-04-12T09:21:52.724Z,22.20
2023-04-12T09:24:19.665Z,16.88
2023-04-12T09:26:46.656Z,21.42
2023-04-12T09:29:25.324Z,21.70
2023-04-12T09:32:10.018Z,21.65
2023-04-12T09:34:37.507Z,17.67
2023-04-12T09:37:17.192Z,17.10
2023-04-12T09:39:44.339Z,20.85
2023-04-12T09:42:32.572Z,22.50
2023-04-12T09:45:02.937Z,23.05
2023-04-12T09:47:40.343Z,18.15
2023-04-12T09:50:08.725Z,23.55
2023-04-12T09:52:40.445Z,17.70
2023-04-12T09:55:10.046Z,22.55
2023-04-12T09:57:44.300Z,21.98
2023-04-12T10:00:17.762Z,22.70
2023-04-12T10:02:52.455Z,18.33
2023-04-12T10:05:28.428Z,22.40
2023-04-12T10:07:56.940Z,22.30
2023-04-12T10:10:24.534Z,18.17
2023-04-12T10:12:51.717Z,22.30
2023-04-12T10:17:52.457Z,21.15
2023-04-12T10:20:21.036Z,21.75
2023-04-12T10:22:52.860Z,21.55
2023-04-12T10:25:24.067Z,18.23
2023-04-12T10:27:51.532Z,22.40
2023-04-12T10:30:31.964Z,21.73
2023-04-12T10:33:05.162Z,21.63
2023-04-12T10:35:53.713Z,21.92
2023-04-12T10:38:21.198Z,21.33
2023-04-12T10:41:15.853Z,21.65
2023-04-12T10:43:46.510Z,22.08
2023-04-12T10:46:48.679Z,22.02
2023-04-12T10:49:16.712Z,22.15
2023-04-12T10:52:02.098Z,21.90
2023-04-12T10:54:36.832Z,21.55
2023-04-12T10:57:04.607Z,22.13
2023-04-12T10:59:59.716Z,22.35
2023-04-12T11:02:26.737Z,21.98
2023-04-12T11:05:10.940Z,18.73
2023-04-12T11:07:42.613Z,23.10
2023-04-12T11:10:21.996Z,21.85
2023-04-12T11:13:00.834Z,22.65
2023-04-12T11:15:29.064Z,21.92
2023-04-12T11:17:57.864Z,21.33
2023-04-12T11:20:27.276Z,18.92
2023-04-12T11:22:55.071Z,21.85
2023-04-12T11:25:22.136Z,21.88
2023-04-12T11:27:52.990Z,21.70
2023-04-12T11:30:20.381Z,21.85
2023-04-12T11:32:47.811Z,23.38
2023-04-12T11:35:16.717Z,21.88
2023-04-12T11:37:46.821Z,21.13
2023-04-12T11:40:14.735Z,21.13
2023-04-12T11:42:41.918Z,22.38
2023-04-12T11:45:17.093Z,22.67
2023-04-12T11:47:46.338Z,22.10
2023-04-12T11:50:30.319Z,21.88
2023-04-12T11:53:10.447Z,21.38
2023-04-12T11:55:40.112Z,22.70
2023-04-12T11:58:07.353Z,18.17
2023-04-12T12:00:35.445Z,22.58
2023-04-12T12:05:37.851Z,23.15
2023-04-12T12:08:07.970Z,23.60
2023-04-12T12:10:52.441Z,22.25
2023-04-12T12:13:26.894Z,22.38
2023-04-12T12:15:53.791Z,21.83
2023-04-12T12:18:26.590Z,22.55
2023-04-12T12:20:53.473Z,21.95
2023-04-12T12:23:33.562Z,22.42
2023-04-12T12:26:17.000Z,17.95
2023-04-12T12:28:55.291Z,21.70
2023-04-12T12:31:23.988Z,18.15
2023-04-12T12:34:01.203Z,23.30
2023-04-12T12:36:32.952Z,22.30
2023-04-12T12:39:11.808Z,21.77
2023-04-12T12:41:40.184Z,23.23
2023-04-12T12:44:08.475Z,21.75
2023-04-12T12:49:05.564Z,17.73
2023-04-12T12:51:33.375Z,22.17
2023-04-12T12:54:01.210Z,21.02
2023-04-12T12:56:28.098Z,21.08
2023-04-12T12:58:55.082Z,21.52
2023-04-12T13:01:28.144Z,21.73
2023-04-12T13:03:55.117Z,22.80
2023-04-12T13:06:22.450Z,22.60
2023-04-12T13:08:49.150Z,18.38
2023-04-12T13:11:17.184Z,22.25
2023-04-12T13:13:45.144Z,17.38
2023-04-12T13:16:15.842Z,22.15
2023-04-12T13:18:43.156Z,21.67
2023-04-12T13:23:36.692Z,22.30
2023-04-12T13:26:03.604Z,20.58
2023-04-12T13:28:30.430Z,21.65
2023-04-12T13:30:57.580Z,21.02
2023-04-12T13:33:24.469Z,21.70
2023-04-12T13:35:51.280Z,21.38
2023-04-12T13:38:20.043Z,22.38
2023-04-12T13:40:46.891Z,26.92
2023-04-12T13:43:13.641Z,20.80
2023-04-12T13:45:40.580Z,20.20
2023-04-12T13:48:07.431Z,20.35
2023-04-12T13:50:34.157Z,20.67
2023-04-12T13:53:01.962Z,20.77
2023-04-12T13:55:33.565Z,21.02
2023-04-12T13:58:00.352Z,20.08
2023-04-12T14:00:27.526Z,21.45
2023-04-12T14:02:59.064Z,20.15
2023-04-12T14:05:26.027Z,22.95
2023-04-12T14:07:52.908Z,21.00
2023-04-12T14:10:19.661Z,21.55
2023-04-12T14:12:47.068Z,21.60
2023-04-12T14:15:14.141Z,20.35
2023-04-12T14:17:41.005Z,17.63
2023-04-12T14:20:12.768Z,21.60
2023-04-12T14:22:39.749Z,21.23
2023-04-12T14:25:07.243Z,21.23
2023-04-12T14:27:35.594Z,22.00
2023-04-12T14:30:02.616Z,21.80
2023-04-12T14:32:32.207Z,21.83
2023-04-12T14:34:59.012Z,21.00
2023-04-12T14:37:25.897Z,22.10
2023-04-12T14:39:55.765Z,21.63
2023-04-12T14:42:22.649Z,17.52
2023-04-12T14:44:49.478Z,21.67
2023-04-12T14:47:16.326Z,21.27
2023-04-12T14:49:43.428Z,17.60
2023-04-12T14:52:10.188Z,19.80
2023-04-12T14:54:36.950Z,21.80
2023-04-12T14:57:05.310Z,21.40
2023-04-12T14:59:32.456Z,17.38
2023-04-12T15:02:01.934Z,22.13
2023-04-12T15:04:32.016Z,20.95
2023-04-12T15:06:58.860Z,17.45
2023-04-12T15:09:26.232Z,21.60
2023-04-12T15:14:34.410Z,18.38
2023-04-12T15:17:05.109Z,20.05
2023-04-12T15:19:34.648Z,20.05
2023-04-12T15:22:01.616Z,21.25
2023-04-12T15:24:28.439Z,21.10
2023-04-12T15:26:55.418Z,21.00
2023-04-12T15:29:26.962Z,16.60
2023-04-12T15:31:56.185Z,20.55
2023-04-12T15:34:26.272Z,20.67
2023-04-12T15:36:53.055Z,20.70
2023-04-12T15:39:20.275Z,21.85
2023-04-12T15:41:47.091Z,22.08
2023-04-12T15:44:13.846Z,20.65
2023-04-12T15:46:42.644Z,23.17
2023-04-12T15:49:10.729Z,21.58
2023-04-12T15:51:38.409Z,22.10
2023-04-12T15:54:06.290Z,22.70
2023-04-12T15:56:34.786Z,19.55
2023-04-12T15:59:01.936Z,19.13
2023-04-12T16:01:28.905Z,27.60
2023-04-12T16:03:58.785Z,25.75
2023-04-12T16:06:25.845Z,26.00
2023-04-12T16:08:54.843Z,25.63
2023-04-12T16:11:24.256Z,31.27
2023-04-12T16:13:57.697Z,34.58
2023-04-12T16:16:24.667Z,33.53
2023-04-12T16:18:52.923Z,34.28
2023-04-12T16:21:21.410Z,37.67
2023-04-12T16:23:51.477Z,37.08
2023-04-12T16:26:22.529Z,37.45
2023-04-12T16:28:54.823Z,35.47
2023-04-12T16:31:22.911Z,38.53
2023-04-12T16:33:51.144Z,34.85
2023-04-12T16:36:18.461Z,36.22
2023-04-12T16:38:49.599Z,35.53
2023-04-12T16:42:14.980Z,37.58
2023-04-12T16:45:45.874Z,37.72
2023-04-12T16:49:13.239Z,36.42
2023-04-12T16:52:39.967Z,38.03
2023-04-12T16:56:09.554Z,38.63
2023-04-12T16:59:35.600Z,40.17
2023-04-12T17:03:01.109Z,38.15
2023-04-12T17:06:28.212Z,37.67
2023-04-12T17:09:56.552Z,38.10
2023-04-12T17:13:21.825Z,38.15
2023-04-12T17:16:47.452Z,29.88
2023-04-12T17:20:13.011Z,38.95
2023-04-12T17:23:38.940Z,36.47
2023-04-12T17:27:06.704Z,34.67
2023-04-12T17:30:35.014Z,33.55
2023-04-12T17:34:04.019Z,36.97
2023-04-12T17:37:29.974Z,36.65
2023-04-12T17:40:55.584Z,35.38
2023-04-12T17:44:27.200Z,37.38
2023-04-12T17:47:52.483Z,35.33
2023-04-12T17:51:24.137Z,28.75
2023-04-12T17:54:49.390Z,32.83
2023-04-12T17:58:14.762Z,35.22
2023-04-12T18:01:46.176Z,32.47
2023-04-12T18:05:17.761Z,31.90
2023-04-12T18:08:43.304Z,30.75
2023-04-12T18:12:08.515Z,32.25
2023-04-12T18:15:36.423Z,29.58
2023-04-12T18:19:02.403Z,27.52
2023-04-12T18:22:27.801Z,30.25
2023-04-12T18:25:53.067Z,28.98
2023-04-12T18:29:19.418Z,29.00
2023-04-12T18:32:44.913Z,30.20
2023-04-12T18:36:11.045Z,28.77
2023-04-12T18:39:36.818Z,30.98
2023-04-12T18:43:04.792Z,29.95
2023-04-12T18:46:31.188Z,32.72
2023-04-12T18:49:56.626Z,28.33
2023-04-12T18:53:23.654Z,28.95
2023-04-12T18:56:54.862Z,29.98
2023-04-12T19:00:23.623Z,31.10
2023-04-12T19:03:49.140Z,30.00
2023-04-12T19:07:15.727Z,33.72
2023-04-12T19:10:44.236Z,31.65
2023-04-12T19:14:13.600Z,31.77
2023-04-12T19:17:41.848Z,33.55
2023-04-12T19:21:16.443Z,34.17
2023-04-12T19:24:47.613Z,33.35
2023-04-12T19:28:16.025Z,26.25
2023-04-12T19:31:43.634Z,31.17
2023-04-12T19:35:12.120Z,31.90
2023-04-12T19:38:45.356Z,32.40
2023-04-12T19:41:13.141Z,32.50
2023-04-12T19:43:48.911Z,32.17
2023-04-12T19:46:15.796Z,32.92
2023-04-12T19:48:48.976Z,31.73
2023-04-12T19:51:19.154Z,28.98
2023-04-12T19:53:53.340Z,31.38
2023-04-12T19:56:20.541Z,31.75
2023-04-12T19:58:54.366Z,31.67
2023-04-12T20:01:22.142Z,31.33
2023-04-12T20:03:56.464Z,30.60
2023-04-12T20:06:30.133Z,31.90
2023-04-12T20:08:57.699Z,30.67
2023-04-12T20:11:28.507Z,30.92
2023-04-12T20:13:56.545Z,31.55
2023-04-12T20:16:24.466Z,24.63
2023-04-12T20:19:55.341Z,32.70
2023-04-12T20:22:53.147Z,30.42
2023-04-12T20:26:19.279Z,30.42
2023-04-12T20:29:45.428Z,30.35
2023-04-12T20:33:15.264Z,31.48
2023-04-12T20:36:41.611Z,31.63
2023-04-12T20:39:29.893Z,33.05
2023-04-12T20:42:56.058Z,31.27
2023-04-12T20:46:26.388Z,30.83
2023-04-12T20:49:52.499Z,29.88
2023-04-12T20:53:21.167Z,29.77
2023-04-12T20:56:49.248Z,31.35
2023-04-12T21:00:18.376Z,31.55
2023-04-12T21:02:46.531Z,29.17
2023-04-12T21:05:18.059Z,30.88
2023-04-12T21:07:52.941Z,32.83
2023-04-12T21:10:20.044Z,30.77
2023-04-12T21:13:47.956Z,30.73
2023-04-12T21:16:17.491Z,31.38
2023-04-12T21:19:45.555Z,30.27
2023-04-12T21:22:17.763Z,32.17
2023-04-12T21:25:44.478Z,24.27
2023-04-12T21:28:12.642Z,30.15
2023-04-12T21:31:39.233Z,30.80
2023-04-12T21:35:05.897Z,29.38
2023-04-12T21:37:36.068Z,30.15
2023-04-12T21:41:07.696Z,32.13
2023-04-12T21:44:32.966Z,24.52
2023-04-12T21:47:59.566Z,28.02
2023-04-12T21:51:25.548Z,29.85
2023-04-12T21:54:50.847Z,30.67
2023-04-12T21:58:18.310Z,30.60
2023-04-12T22:01:44.156Z,31.58
2023-04-12T22:05:10.311Z,31.58
2023-04-12T22:08:35.653Z,25.25
2023-04-12T22:12:10.775Z,30.30
2023-04-12T22:15:36.640Z,30.25
2023-04-12T22:18:31.965Z,30.08
2023-04-12T22:22:07.883Z,29.77
2023-04-12T22:25:33.490Z,31.15
2023-04-12T22:29:00.720Z,29.20
2023-04-12T22:32:26.133Z,26.48
2023-04-12T22:35:57.569Z,28.35
2023-04-12T22:42:49.549Z,30.92
2023-04-12T22:46:16.167Z,34.47
2023-04-12T22:48:44.090Z,31.35
2023-04-12T22:51:11.195Z,29.75
2023-04-12T22:53:37.931Z,30.25
2023-04-12T22:56:07.676Z,31.15
2023-04-12T22:58:36.299Z,30.33
2023-04-12T23:01:11.076Z,25.70
2023-04-12T23:03:41.286Z,29.52
2023-04-12T23:06:19.506Z,33.80
2023-04-12T23:08:46.784Z,30.33
2023-04-12T23:11:14.163Z,30.30
2023-04-12T23:13:40.895Z,32.13
2023-04-12T23:16:11.440Z,30.13
2023-04-12T23:18:39.048Z,34.78
2023-04-12T23:23:33.316Z,29.70
2023-04-12T23:26:01.112Z,29.92
2023-04-12T23:28:28.668Z,30.17
2023-04-12T23:33:26.476Z,29.75
2023-04-12T23:36:02.821Z,29.80
2023-04-12T23:38:34.834Z,30.80
2023-04-12T23:41:06.842Z,24.83
2023-04-12T23:43:42.950Z,28.90
2023-04-12T23:46:10.035Z,30.48
2023-04-12T23:48:42.804Z,30.52
2023-04-12T23:51:18.379Z,31.73
2023-04-12T23:53:45.540Z,30.70
2023-04-12T23:56:12.318Z,31.92
2023-04-12T23:58:39.083Z,33.08
